sensor_id;sensor_type;location;lat;lon;timestamp;P1;durP1;ratioP1;P2;durP2;ratioP2
70929;SDS011;58588;48.102;19.682;2024-02-28T00:00:45;21.80;;;11.13;;
70929;SDS011;58588;48.102;19.682;2024-02-28T00:03:47;18.80;;;8.40;;
70929;SDS011;58588;48.102;19.682;2024-02-28T00:06:49;25.40;;;11.63;;
70929;SDS011;58588;48.102;19.682;2024-02-28T00:09:51;24.20;;;11.90;;
70929;SDS011;58588;48.102;19.682;2024-02-28T00:12:58;21.10;;;10.70;;
70929;SDS011;58588;48.102;19.682;2024-02-28T00:16:00;21.73;;;10.82;;
70929;SDS011;58588;48.102;19.682;2024-02-28T00:19:03;21.90;;;10.90;;
70929;SDS011;58588;48.102;19.682;2024-02-28T00:22:05;22.13;;;11.02;;
70929;SDS011;58588;48.102;19.682;2024-02-28T00:25:07;24.00;;;11.07;;
70929;SDS011;58588;48.102;19.682;2024-02-28T00:28:12;24.08;;;11.15;;
70929;SDS011;58588;48.102;19.682;2024-02-28T00:31:14;21.00;;;9.80;;
70929;SDS011;58588;48.102;19.682;2024-02-28T00:34:16;18.43;;;8.97;;
70929;SDS011;58588;48.102;19.682;2024-02-28T00:37:18;17.25;;;8.65;;
70929;SDS011;58588;48.102;19.682;2024-02-28T00:40:20;20.60;;;9.57;;
70929;SDS011;58588;48.102;19.682;2024-02-28T00:43:23;17.02;;;8.15;;
70929;SDS011;58588;48.102;19.682;2024-02-28T00:46:25;17.38;;;7.93;;
70929;SDS011;58588;48.102;19.682;2024-02-28T00:49:26;17.53;;;8.00;;
70929;SDS011;58588;48.102;19.682;2024-02-28T00:52:28;23.27;;;8.60;;
70929;SDS011;58588;48.102;19.682;2024-02-28T00:55:32;16.17;;;7.50;;
70929;SDS011;58588;48.102;19.682;2024-02-28T00:58:35;16.83;;;8.10;;
70929;SDS011;58588;48.102;19.682;2024-02-28T01:01:39;17.50;;;7.53;;
70929;SDS011;58588;48.102;19.682;2024-02-28T01:04:41;16.80;;;7.27;;
70929;SDS011;58588;48.102;19.682;2024-02-28T01:07:43;16.92;;;7.15;;
70929;SDS011;58588;48.102;19.682;2024-02-28T01:10:45;14.50;;;7.07;;
70929;SDS011;58588;48.102;19.682;2024-02-28T01:13:48;16.38;;;7.13;;
70929;SDS011;58588;48.102;19.682;2024-02-28T01:16:50;18.88;;;8.05;;
70929;SDS011;58588;48.102;19.682;2024-02-28T01:19:52;19.20;;;7.87;;
70929;SDS011;58588;48.102;19.682;2024-02-28T01:22:54;15.43;;;6.93;;
70929;SDS011;58588;48.102;19.682;2024-02-28T01:25:56;15.50;;;8.00;;
70929;SDS011;58588;48.102;19.682;2024-02-28T01:28:59;17.73;;;8.00;;
70929;SDS011;58588;48.102;19.682;2024-02-28T01:32:01;16.42;;;7.53;;
70929;SDS011;58588;48.102;19.682;2024-02-28T01:35:03;14.63;;;7.20;;
70929;SDS011;58588;48.102;19.682;2024-02-28T01:38:06;13.82;;;7.03;;
70929;SDS011;58588;48.102;19.682;2024-02-28T01:41:07;15.35;;;6.82;;
70929;SDS011;58588;48.102;19.682;2024-02-28T01:44:11;15.55;;;6.30;;
70929;SDS011;58588;48.102;19.682;2024-02-28T01:47:12;14.68;;;6.60;;
70929;SDS011;58588;48.102;19.682;2024-02-28T01:50:15;17.57;;;8.03;;
70929;SDS011;58588;48.102;19.682;2024-02-28T01:53:16;18.70;;;8.43;;
70929;SDS011;58588;48.102;19.682;2024-02-28T01:56:19;18.80;;;7.95;;
70929;SDS011;58588;48.102;19.682;2024-02-28T01:59:23;17.20;;;7.90;;
70929;SDS011;58588;48.102;19.682;2024-02-28T02:02:27;18.75;;;7.97;;
70929;SDS011;58588;48.102;19.682;2024-02-28T02:05:29;16.53;;;7.90;;
70929;SDS011;58588;48.102;19.682;2024-02-28T02:08:31;18.85;;;8.65;;
70929;SDS011;58588;48.102;19.682;2024-02-28T02:11:34;16.25;;;7.63;;
70929;SDS011;58588;48.102;19.682;2024-02-28T02:14:38;17.25;;;7.72;;
70929;SDS011;58588;48.102;19.682;2024-02-28T02:17:40;17.88;;;7.78;;
70929;SDS011;58588;48.102;19.682;2024-02-28T02:20:42;17.07;;;7.87;;
70929;SDS011;58588;48.102;19.682;2024-02-28T02:23:49;17.00;;;7.38;;
70929;SDS011;58588;48.102;19.682;2024-02-28T02:26:54;15.65;;;7.07;;
70929;SDS011;58588;48.102;19.682;2024-02-28T02:29:56;17.30;;;7.78;;
70929;SDS011;58588;48.102;19.682;2024-02-28T02:32:58;17.67;;;7.25;;
70929;SDS011;58588;48.102;19.682;2024-02-28T02:36:00;14.63;;;7.50;;
70929;SDS011;58588;48.102;19.682;2024-02-28T02:39:03;15.70;;;7.25;;
70929;SDS011;58588;48.102;19.682;2024-02-28T02:42:08;14.98;;;7.75;;
70929;SDS011;58588;48.102;19.682;2024-02-28T02:45:09;16.98;;;7.60;;
70929;SDS011;58588;48.102;19.682;2024-02-28T02:48:11;16.33;;;6.88;;
70929;SDS011;58588;48.102;19.682;2024-02-28T02:51:13;14.27;;;6.97;;
70929;SDS011;58588;48.102;19.682;2024-02-28T02:54:18;14.63;;;7.03;;
70929;SDS011;58588;48.102;19.682;2024-02-28T02:57:20;16.42;;;7.10;;
70929;SDS011;58588;48.102;19.682;2024-02-28T03:00:22;15.15;;;7.18;;
70929;SDS011;58588;48.102;19.682;2024-02-28T03:03:23;15.50;;;7.55;;
70929;SDS011;58588;48.102;19.682;2024-02-28T03:06:25;16.40;;;7.87;;
70929;SDS011;58588;48.102;19.682;2024-02-28T03:09:29;15.75;;;7.68;;
70929;SDS011;58588;48.102;19.682;2024-02-28T03:12:30;17.15;;;8.35;;
70929;SDS011;58588;48.102;19.682;2024-02-28T03:15:32;16.55;;;7.68;;
70929;SDS011;58588;48.102;19.682;2024-02-28T03:18:34;14.55;;;7.45;;
70929;SDS011;58588;48.102;19.682;2024-02-28T03:21:36;17.50;;;7.40;;
70929;SDS011;58588;48.102;19.682;2024-02-28T03:24:39;16.52;;;7.80;;
70929;SDS011;58588;48.102;19.682;2024-02-28T03:27:41;17.33;;;8.90;;
70929;SDS011;58588;48.102;19.682;2024-02-28T03:30:43;16.58;;;7.88;;
70929;SDS011;58588;48.102;19.682;2024-02-28T03:33:45;19.33;;;8.45;;
70929;SDS011;58588;48.102;19.682;2024-02-28T03:36:47;17.97;;;9.03;;
70929;SDS011;58588;48.102;19.682;2024-02-28T03:39:50;18.10;;;8.00;;
70929;SDS011;58588;48.102;19.682;2024-02-28T03:42:52;15.50;;;7.63;;
70929;SDS011;58588;48.102;19.682;2024-02-28T03:45:54;18.98;;;8.15;;
70929;SDS011;58588;48.102;19.682;2024-02-28T03:48:56;17.98;;;8.00;;
70929;SDS011;58588;48.102;19.682;2024-02-28T03:51:58;16.30;;;7.13;;
70929;SDS011;58588;48.102;19.682;2024-02-28T03:55:02;16.52;;;7.80;;
70929;SDS011;58588;48.102;19.682;2024-02-28T03:58:04;19.50;;;7.82;;
70929;SDS011;58588;48.102;19.682;2024-02-28T04:01:08;15.18;;;6.93;;
70929;SDS011;58588;48.102;19.682;2024-02-28T04:04:10;15.00;;;7.53;;
70929;SDS011;58588;48.102;19.682;2024-02-28T04:07:12;16.23;;;8.03;;
70929;SDS011;58588;48.102;19.682;2024-02-28T04:10:15;15.45;;;7.07;;
70929;SDS011;58588;48.102;19.682;2024-02-28T04:13:17;17.00;;;7.80;;
70929;SDS011;58588;48.102;19.682;2024-02-28T04:16:19;15.77;;;7.75;;
70929;SDS011;58588;48.102;19.682;2024-02-28T04:19:21;17.88;;;8.55;;
70929;SDS011;58588;48.102;19.682;2024-02-28T04:22:23;18.83;;;8.50;;
70929;SDS011;58588;48.102;19.682;2024-02-28T04:25:26;17.63;;;7.57;;
70929;SDS011;58588;48.102;19.682;2024-02-28T04:28:28;14.77;;;7.20;;
70929;SDS011;58588;48.102;19.682;2024-02-28T04:31:30;14.00;;;7.13;;
70929;SDS011;58588;48.102;19.682;2024-02-28T04:34:31;16.48;;;7.75;;
70929;SDS011;58588;48.102;19.682;2024-02-28T04:37:33;16.70;;;8.10;;
70929;SDS011;58588;48.102;19.682;2024-02-28T04:40:37;18.42;;;9.05;;
70929;SDS011;58588;48.102;19.682;2024-02-28T04:43:39;21.70;;;9.48;;
70929;SDS011;58588;48.102;19.682;2024-02-28T04:46:41;18.67;;;8.80;;
70929;SDS011;58588;48.102;19.682;2024-02-28T04:49:43;18.67;;;10.10;;
70929;SDS011;58588;48.102;19.682;2024-02-28T04:52:45;20.30;;;9.77;;
70929;SDS011;58588;48.102;19.682;2024-02-28T04:55:48;18.73;;;8.50;;
70929;SDS011;58588;48.102;19.682;2024-02-28T04:58:50;19.50;;;10.05;;
70929;SDS011;58588;48.102;19.682;2024-02-28T05:01:52;17.00;;;8.50;;
70929;SDS011;58588;48.102;19.682;2024-02-28T05:04:54;13.68;;;6.45;;
70929;SDS011;58588;48.102;19.682;2024-02-28T05:07:56;16.67;;;8.40;;
70929;SDS011;58588;48.102;19.682;2024-02-28T05:10:59;15.00;;;7.45;;
70929;SDS011;58588;48.102;19.682;2024-02-28T05:14:01;14.15;;;6.95;;
70929;SDS011;58588;48.102;19.682;2024-02-28T05:17:03;17.02;;;8.05;;
70929;SDS011;58588;48.102;19.682;2024-02-28T05:20:05;19.27;;;10.27;;
70929;SDS011;58588;48.102;19.682;2024-02-28T05:23:09;38.57;;;20.57;;
70929;SDS011;58588;48.102;19.682;2024-02-28T05:26:12;32.58;;;15.70;;
70929;SDS011;58588;48.102;19.682;2024-02-28T05:29:14;45.75;;;23.88;;
70929;SDS011;58588;48.102;19.682;2024-02-28T05:32:16;40.67;;;21.75;;
70929;SDS011;58588;48.102;19.682;2024-02-28T05:35:18;42.65;;;20.83;;
70929;SDS011;58588;48.102;19.682;2024-02-28T05:38:20;30.10;;;15.53;;
70929;SDS011;58588;48.102;19.682;2024-02-28T05:41:23;27.92;;;13.70;;
70929;SDS011;58588;48.102;19.682;2024-02-28T05:44:25;25.17;;;12.82;;
70929;SDS011;58588;48.102;19.682;2024-02-28T05:47:27;20.77;;;10.85;;
70929;SDS011;58588;48.102;19.682;2024-02-28T05:50:30;23.70;;;11.27;;
70929;SDS011;58588;48.102;19.682;2024-02-28T05:53:33;25.70;;;12.37;;
70929;SDS011;58588;48.102;19.682;2024-02-28T05:56:37;24.85;;;11.82;;
70929;SDS011;58588;48.102;19.682;2024-02-28T05:59:39;22.27;;;11.60;;
70929;SDS011;58588;48.102;19.682;2024-02-28T06:02:41;23.65;;;11.30;;
70929;SDS011;58588;48.102;19.682;2024-02-28T06:05:43;19.95;;;10.10;;
70929;SDS011;58588;48.102;19.682;2024-02-28T06:08:45;24.27;;;12.57;;
70929;SDS011;58588;48.102;19.682;2024-02-28T06:11:48;24.45;;;11.25;;
70929;SDS011;58588;48.102;19.682;2024-02-28T06:14:50;24.30;;;11.85;;
70929;SDS011;58588;48.102;19.682;2024-02-28T06:17:52;29.42;;;14.90;;
70929;SDS011;58588;48.102;19.682;2024-02-28T06:20:54;27.23;;;14.48;;
70929;SDS011;58588;48.102;19.682;2024-02-28T06:23:56;19.77;;;10.13;;
70929;SDS011;58588;48.102;19.682;2024-02-28T06:27:00;21.58;;;11.02;;
70929;SDS011;58588;48.102;19.682;2024-02-28T06:30:02;21.83;;;11.13;;
70929;SDS011;58588;48.102;19.682;2024-02-28T06:33:04;23.83;;;10.52;;
70929;SDS011;58588;48.102;19.682;2024-02-28T06:36:09;20.15;;;9.38;;
70929;SDS011;58588;48.102;19.682;2024-02-28T06:39:10;19.40;;;9.93;;
70929;SDS011;58588;48.102;19.682;2024-02-28T06:42:14;19.20;;;9.60;;
70929;SDS011;58588;48.102;19.682;2024-02-28T06:45:16;18.65;;;9.02;;
70929;SDS011;58588;48.102;19.682;2024-02-28T06:48:18;21.23;;;9.90;;
70929;SDS011;58588;48.102;19.682;2024-02-28T06:51:20;19.80;;;9.60;;
70929;SDS011;58588;48.102;19.682;2024-02-28T06:54:22;18.23;;;9.13;;
70929;SDS011;58588;48.102;19.682;2024-02-28T06:57:25;19.90;;;9.95;;
70929;SDS011;58588;48.102;19.682;2024-02-28T07:00:27;20.50;;;10.07;;
70929;SDS011;58588;48.102;19.682;2024-02-28T07:03:29;20.05;;;9.60;;
70929;SDS011;58588;48.102;19.682;2024-02-28T07:06:31;19.83;;;10.45;;
70929;SDS011;58588;48.102;19.682;2024-02-28T07:09:32;22.13;;;10.60;;
70929;SDS011;58588;48.102;19.682;2024-02-28T07:12:36;19.85;;;10.10;;
70929;SDS011;58588;48.102;19.682;2024-02-28T07:15:37;19.45;;;10.10;;
70929;SDS011;58588;48.102;19.682;2024-02-28T07:18:40;20.23;;;10.32;;
70929;SDS011;58588;48.102;19.682;2024-02-28T07:21:42;20.73;;;10.40;;
70929;SDS011;58588;48.102;19.682;2024-02-28T07:24:43;20.20;;;10.30;;
70929;SDS011;58588;48.102;19.682;2024-02-28T07:27:47;19.42;;;10.40;;
70929;SDS011;58588;48.102;19.682;2024-02-28T07:30:49;20.42;;;9.98;;
70929;SDS011;58588;48.102;19.682;2024-02-28T07:33:50;24.38;;;10.55;;
70929;SDS011;58588;48.102;19.682;2024-02-28T07:36:52;18.70;;;9.25;;
70929;SDS011;58588;48.102;19.682;2024-02-28T07:39:54;25.23;;;11.53;;
70929;SDS011;58588;48.102;19.682;2024-02-28T07:42:58;21.88;;;10.25;;
70929;SDS011;58588;48.102;19.682;2024-02-28T07:45:59;22.35;;;10.48;;
70929;SDS011;58588;48.102;19.682;2024-02-28T07:49:01;22.40;;;10.57;;
70929;SDS011;58588;48.102;19.682;2024-02-28T07:52:03;19.52;;;11.02;;
70929;SDS011;58588;48.102;19.682;2024-02-28T07:55:05;22.07;;;10.33;;
70929;SDS011;58588;48.102;19.682;2024-02-28T07:58:09;24.20;;;10.38;;
70929;SDS011;58588;48.102;19.682;2024-02-28T08:01:11;23.90;;;11.93;;
70929;SDS011;58588;48.102;19.682;2024-02-28T08:04:16;19.70;;;10.68;;
70929;SDS011;58588;48.102;19.682;2024-02-28T08:07:18;20.15;;;9.75;;
70929;SDS011;58588;48.102;19.682;2024-02-28T08:10:20;20.10;;;10.50;;
70929;SDS011;58588;48.102;19.682;2024-02-28T08:13:23;19.65;;;10.02;;
70929;SDS011;58588;48.102;19.682;2024-02-28T08:16:28;23.15;;;11.23;;
70929;SDS011;58588;48.102;19.682;2024-02-28T08:19:30;28.17;;;14.73;;
70929;SDS011;58588;48.102;19.682;2024-02-28T08:22:32;21.15;;;11.25;;
70929;SDS011;58588;48.102;19.682;2024-02-28T08:25:34;43.20;;;23.97;;
70929;SDS011;58588;48.102;19.682;2024-02-28T08:28:37;32.83;;;15.52;;
70929;SDS011;58588;48.102;19.682;2024-02-28T08:31:43;21.05;;;11.60;;
70929;SDS011;58588;48.102;19.682;2024-02-28T08:34:47;23.50;;;12.65;;
70929;SDS011;58588;48.102;19.682;2024-02-28T08:37:49;29.30;;;16.08;;
70929;SDS011;58588;48.102;19.682;2024-02-28T08:40:51;31.30;;;20.43;;
70929;SDS011;58588;48.102;19.682;2024-02-28T08:43:54;30.73;;;18.35;;
70929;SDS011;58588;48.102;19.682;2024-02-28T08:46:56;30.42;;;16.80;;
70929;SDS011;58588;48.102;19.682;2024-02-28T08:49:58;28.50;;;15.13;;
70929;SDS011;58588;48.102;19.682;2024-02-28T08:53:00;27.17;;;14.23;;
70929;SDS011;58588;48.102;19.682;2024-02-28T08:56:03;22.07;;;11.67;;
70929;SDS011;58588;48.102;19.682;2024-02-28T08:59:08;22.05;;;12.40;;
70929;SDS011;58588;48.102;19.682;2024-02-28T09:02:10;23.80;;;12.55;;
70929;SDS011;58588;48.102;19.682;2024-02-28T09:05:12;26.92;;;13.27;;
70929;SDS011;58588;48.102;19.682;2024-02-28T09:08:14;24.40;;;13.25;;
70929;SDS011;58588;48.102;19.682;2024-02-28T09:11:16;27.30;;;13.80;;
70929;SDS011;58588;48.102;19.682;2024-02-28T09:14:19;21.35;;;12.15;;
70929;SDS011;58588;48.102;19.682;2024-02-28T09:17:21;21.45;;;12.20;;
70929;SDS011;58588;48.102;19.682;2024-02-28T09:20:23;23.08;;;12.77;;
70929;SDS011;58588;48.102;19.682;2024-02-28T09:23:25;23.85;;;13.75;;
70929;SDS011;58588;48.102;19.682;2024-02-28T09:26:27;26.67;;;13.67;;
70929;SDS011;58588;48.102;19.682;2024-02-28T09:29:31;23.15;;;12.48;;
70929;SDS011;58588;48.102;19.682;2024-02-28T09:32:32;18.45;;;10.07;;
70929;SDS011;58588;48.102;19.682;2024-02-28T09:35:34;17.15;;;8.90;;
70929;SDS011;58588;48.102;19.682;2024-02-28T09:38:37;10.63;;;4.82;;
70929;SDS011;58588;48.102;19.682;2024-02-28T09:41:39;13.87;;;5.23;;
70929;SDS011;58588;48.102;19.682;2024-02-28T09:44:43;11.35;;;4.38;;
70929;SDS011;58588;48.102;19.682;2024-02-28T09:47:45;13.07;;;4.95;;
70929;SDS011;58588;48.102;19.682;2024-02-28T09:50:47;12.75;;;4.72;;
70929;SDS011;58588;48.102;19.682;2024-02-28T09:53:49;12.50;;;4.95;;
70929;SDS011;58588;48.102;19.682;2024-02-28T09:56:52;17.00;;;5.23;;
70929;SDS011;58588;48.102;19.682;2024-02-28T09:59:56;14.77;;;4.95;;
70929;SDS011;58588;48.102;19.682;2024-02-28T10:02:59;15.05;;;4.75;;
70929;SDS011;58588;48.102;19.682;2024-02-28T10:06:03;12.90;;;4.43;;
70929;SDS011;58588;48.102;19.682;2024-02-28T10:09:05;14.35;;;5.57;;
70929;SDS011;58588;48.102;19.682;2024-02-28T10:12:07;12.17;;;4.73;;
70929;SDS011;58588;48.102;19.682;2024-02-28T10:15:11;12.27;;;4.93;;
70929;SDS011;58588;48.102;19.682;2024-02-28T10:18:13;12.45;;;4.55;;
70929;SDS011;58588;48.102;19.682;2024-02-28T10:21:15;13.57;;;5.53;;
70929;SDS011;58588;48.102;19.682;2024-02-28T10:24:18;11.32;;;5.35;;
70929;SDS011;58588;48.102;19.682;2024-02-28T10:27:22;12.97;;;5.27;;
70929;SDS011;58588;48.102;19.682;2024-02-28T10:30:26;12.07;;;4.60;;
70929;SDS011;58588;48.102;19.682;2024-02-28T10:33:28;12.13;;;5.22;;
70929;SDS011;58588;48.102;19.682;2024-02-28T10:36:31;13.30;;;4.13;;
70929;SDS011;58588;48.102;19.682;2024-02-28T10:39:34;11.57;;;4.75;;
70929;SDS011;58588;48.102;19.682;2024-02-28T10:42:36;11.30;;;4.73;;
70929;SDS011;58588;48.102;19.682;2024-02-28T10:45:42;11.73;;;4.38;;
70929;SDS011;58588;48.102;19.682;2024-02-28T10:48:45;12.45;;;4.57;;
70929;SDS011;58588;48.102;19.682;2024-02-28T10:51:49;11.05;;;4.13;;
70929;SDS011;58588;48.102;19.682;2024-02-28T10:54:56;12.18;;;4.20;;
70929;SDS011;58588;48.102;19.682;2024-02-28T10:58:01;11.17;;;4.10;;
70929;SDS011;58588;48.102;19.682;2024-02-28T11:01:09;10.23;;;4.32;;
70929;SDS011;58588;48.102;19.682;2024-02-28T11:04:11;10.07;;;4.60;;
70929;SDS011;58588;48.102;19.682;2024-02-28T11:07:19;12.10;;;4.88;;
70929;SDS011;58588;48.102;19.682;2024-02-28T11:10:23;13.63;;;4.85;;
70929;SDS011;58588;48.102;19.682;2024-02-28T11:13:25;12.17;;;4.60;;
70929;SDS011;58588;48.102;19.682;2024-02-28T11:16:30;13.40;;;4.32;;
70929;SDS011;58588;48.102;19.682;2024-02-28T11:19:33;11.43;;;4.85;;
70929;SDS011;58588;48.102;19.682;2024-02-28T11:22:35;13.48;;;4.22;;
70929;SDS011;58588;48.102;19.682;2024-02-28T11:25:37;13.55;;;4.85;;
70929;SDS011;58588;48.102;19.682;2024-02-28T11:28:39;12.53;;;5.00;;
70929;SDS011;58588;48.102;19.682;2024-02-28T11:31:42;11.30;;;4.90;;
70929;SDS011;58588;48.102;19.682;2024-02-28T11:34:44;11.27;;;4.50;;
70929;SDS011;58588;48.102;19.682;2024-02-28T11:37:47;11.80;;;4.30;;
70929;SDS011;58588;48.102;19.682;2024-02-28T11:40:50;11.70;;;4.82;;
70929;SDS011;58588;48.102;19.682;2024-02-28T11:43:52;11.60;;;4.70;;
70929;SDS011;58588;48.102;19.682;2024-02-28T11:46:55;11.60;;;4.68;;
70929;SDS011;58588;48.102;19.682;2024-02-28T11:49:58;16.77;;;4.97;;
70929;SDS011;58588;48.102;19.682;2024-02-28T11:53:01;9.68;;;4.30;;
70929;SDS011;58588;48.102;19.682;2024-02-28T11:56:05;14.50;;;5.00;;
70929;SDS011;58588;48.102;19.682;2024-02-28T11:59:08;12.83;;;4.97;;
70929;SDS011;58588;48.102;19.682;2024-02-28T12:02:15;12.30;;;4.72;;
70929;SDS011;58588;48.102;19.682;2024-02-28T12:05:18;15.35;;;5.00;;
70929;SDS011;58588;48.102;19.682;2024-02-28T12:08:21;10.93;;;4.55;;
70929;SDS011;58588;48.102;19.682;2024-02-28T12:11:24;11.57;;;4.85;;
70929;SDS011;58588;48.102;19.682;2024-02-28T12:14:29;11.70;;;5.20;;
70929;SDS011;58588;48.102;19.682;2024-02-28T12:17:34;9.95;;;4.72;;
70929;SDS011;58588;48.102;19.682;2024-02-28T12:20:37;14.15;;;4.38;;
70929;SDS011;58588;48.102;19.682;2024-02-28T12:23:39;11.13;;;4.60;;
70929;SDS011;58588;48.102;19.682;2024-02-28T12:26:41;11.43;;;4.80;;
70929;SDS011;58588;48.102;19.682;2024-02-28T12:29:43;13.40;;;4.93;;
70929;SDS011;58588;48.102;19.682;2024-02-28T12:32:46;14.20;;;4.90;;
70929;SDS011;58588;48.102;19.682;2024-02-28T12:35:48;14.65;;;5.07;;
70929;SDS011;58588;48.102;19.682;2024-02-28T12:38:50;11.07;;;4.78;;
70929;SDS011;58588;48.102;19.682;2024-02-28T12:41:52;12.65;;;4.75;;
70929;SDS011;58588;48.102;19.682;2024-02-28T12:44:54;11.83;;;4.13;;
70929;SDS011;58588;48.102;19.682;2024-02-28T12:47:57;13.63;;;4.88;;
70929;SDS011;58588;48.102;19.682;2024-02-28T12:51:01;12.00;;;4.80;;
70929;SDS011;58588;48.102;19.682;2024-02-28T12:54:03;13.07;;;4.60;;
70929;SDS011;58588;48.102;19.682;2024-02-28T12:57:05;10.57;;;4.80;;
70929;SDS011;58588;48.102;19.682;2024-02-28T13:00:09;11.70;;;5.00;;
70929;SDS011;58588;48.102;19.682;2024-02-28T13:03:12;18.88;;;4.93;;
70929;SDS011;58588;48.102;19.682;2024-02-28T13:06:15;12.98;;;5.10;;
70929;SDS011;58588;48.102;19.682;2024-02-28T13:09:17;15.63;;;6.05;;
70929;SDS011;58588;48.102;19.682;2024-02-28T13:12:18;11.95;;;4.90;;
70929;SDS011;58588;48.102;19.682;2024-02-28T13:15:20;13.87;;;5.43;;
70929;SDS011;58588;48.102;19.682;2024-02-28T13:18:23;11.43;;;4.70;;
70929;SDS011;58588;48.102;19.682;2024-02-28T13:21:25;15.88;;;5.78;;
70929;SDS011;58588;48.102;19.682;2024-02-28T13:24:27;16.83;;;5.13;;
70929;SDS011;58588;48.102;19.682;2024-02-28T13:27:29;18.60;;;5.22;;
70929;SDS011;58588;48.102;19.682;2024-02-28T13:30:31;11.33;;;4.43;;
70929;SDS011;58588;48.102;19.682;2024-02-28T13:33:36;12.40;;;4.40;;
70929;SDS011;58588;48.102;19.682;2024-02-28T13:36:38;11.07;;;4.72;;
70929;SDS011;58588;48.102;19.682;2024-02-28T13:39:42;9.55;;;4.35;;
70929;SDS011;58588;48.102;19.682;2024-02-28T13:42:44;13.32;;;4.75;;
70929;SDS011;58588;48.102;19.682;2024-02-28T13:45:47;15.80;;;4.63;;
70929;SDS011;58588;48.102;19.682;2024-02-28T13:48:52;13.20;;;4.57;;
70929;SDS011;58588;48.102;19.682;2024-02-28T13:51:54;13.77;;;4.45;;
70929;SDS011;58588;48.102;19.682;2024-02-28T13:54:56;10.48;;;4.50;;
70929;SDS011;58588;48.102;19.682;2024-02-28T13:57:58;12.48;;;4.70;;
70929;SDS011;58588;48.102;19.682;2024-02-28T14:01:00;10.93;;;4.30;;
70929;SDS011;58588;48.102;19.682;2024-02-28T14:04:06;13.68;;;4.60;;
70929;SDS011;58588;48.102;19.682;2024-02-28T14:07:08;10.95;;;4.47;;
70929;SDS011;58588;48.102;19.682;2024-02-28T14:10:10;13.80;;;4.47;;
70929;SDS011;58588;48.102;19.682;2024-02-28T14:13:12;9.32;;;4.40;;
70929;SDS011;58588;48.102;19.682;2024-02-28T14:16:15;10.13;;;4.40;;
70929;SDS011;58588;48.102;19.682;2024-02-28T14:19:21;10.35;;;4.25;;
70929;SDS011;58588;48.102;19.682;2024-02-28T14:22:23;12.95;;;4.55;;
70929;SDS011;58588;48.102;19.682;2024-02-28T14:25:26;10.38;;;4.15;;
70929;SDS011;58588;48.102;19.682;2024-02-28T14:28:30;12.98;;;4.40;;
70929;SDS011;58588;48.102;19.682;2024-02-28T14:31:32;13.13;;;4.37;;
70929;SDS011;58588;48.102;19.682;2024-02-28T14:34:36;14.13;;;5.72;;
70929;SDS011;58588;48.102;19.682;2024-02-28T14:37:38;13.50;;;4.93;;
70929;SDS011;58588;48.102;19.682;2024-02-28T14:40:40;15.68;;;6.78;;
70929;SDS011;58588;48.102;19.682;2024-02-28T14:43:42;22.75;;;10.35;;
70929;SDS011;58588;48.102;19.682;2024-02-28T14:46:44;18.60;;;8.83;;
70929;SDS011;58588;48.102;19.682;2024-02-28T14:49:48;12.52;;;5.50;;
70929;SDS011;58588;48.102;19.682;2024-02-28T14:52:49;14.20;;;5.95;;
70929;SDS011;58588;48.102;19.682;2024-02-28T14:55:52;14.32;;;5.63;;
70929;SDS011;58588;48.102;19.682;2024-02-28T14:58:54;12.35;;;5.35;;
70929;SDS011;58588;48.102;19.682;2024-02-28T15:01:56;14.67;;;5.27;;
70929;SDS011;58588;48.102;19.682;2024-02-28T15:04:59;13.02;;;5.30;;
70929;SDS011;58588;48.102;19.682;2024-02-28T15:09:32;12.82;;;5.35;;
70929;SDS011;58588;48.102;19.682;2024-02-28T15:12:21;13.80;;;7.07;;
70929;SDS011;58588;48.102;19.682;2024-02-28T15:15:23;19.25;;;6.30;;
70929;SDS011;58588;48.102;19.682;2024-02-28T15:18:25;13.90;;;5.43;;
70929;SDS011;58588;48.102;19.682;2024-02-28T15:21:28;13.63;;;5.78;;
70929;SDS011;58588;48.102;19.682;2024-02-28T15:24:31;12.68;;;6.22;;
70929;SDS011;58588;48.102;19.682;2024-02-28T15:27:33;12.93;;;5.18;;
70929;SDS011;58588;48.102;19.682;2024-02-28T15:30:34;18.20;;;8.63;;
70929;SDS011;58588;48.102;19.682;2024-02-28T15:33:36;37.23;;;19.40;;
70929;SDS011;58588;48.102;19.682;2024-02-28T15:36:40;37.67;;;19.67;;
70929;SDS011;58588;48.102;19.682;2024-02-28T15:39:42;35.97;;;18.73;;
70929;SDS011;58588;48.102;19.682;2024-02-28T15:42:45;17.75;;;8.15;;
70929;SDS011;58588;48.102;19.682;2024-02-28T15:45:46;19.50;;;6.88;;
70929;SDS011;58588;48.102;19.682;2024-02-28T15:48:49;15.37;;;7.53;;
70929;SDS011;58588;48.102;19.682;2024-02-28T15:51:53;15.25;;;9.48;;
70929;SDS011;58588;48.102;19.682;2024-02-28T15:54:55;14.65;;;6.15;;
70929;SDS011;58588;48.102;19.682;2024-02-28T15:57:57;22.15;;;9.75;;
70929;SDS011;58588;48.102;19.682;2024-02-28T16:00:59;22.35;;;11.05;;
70929;SDS011;58588;48.102;19.682;2024-02-28T16:04:01;26.37;;;13.57;;
70929;SDS011;58588;48.102;19.682;2024-02-28T16:07:05;32.17;;;17.38;;
70929;SDS011;58588;48.102;19.682;2024-02-28T16:10:09;23.08;;;12.00;;
70929;SDS011;58588;48.102;19.682;2024-02-28T16:13:11;12.52;;;5.78;;
70929;SDS011;58588;48.102;19.682;2024-02-28T16:16:14;12.25;;;5.47;;
70929;SDS011;58588;48.102;19.682;2024-02-28T16:19:16;15.07;;;5.27;;
70929;SDS011;58588;48.102;19.682;2024-02-28T16:22:19;14.15;;;5.07;;
70929;SDS011;58588;48.102;19.682;2024-02-28T16:25:22;14.27;;;4.63;;
70929;SDS011;58588;48.102;19.682;2024-02-28T16:28:25;12.32;;;6.15;;
70929;SDS011;58588;48.102;19.682;2024-02-28T16:31:27;16.13;;;6.82;;
70929;SDS011;58588;48.102;19.682;2024-02-28T16:34:29;15.00;;;6.80;;
70929;SDS011;58588;48.102;19.682;2024-02-28T16:37:33;12.07;;;5.20;;
70929;SDS011;58588;48.102;19.682;2024-02-28T16:40:35;12.77;;;5.72;;
70929;SDS011;58588;48.102;19.682;2024-02-28T16:43:36;17.40;;;8.00;;
70929;SDS011;58588;48.102;19.682;2024-02-28T16:46:38;18.88;;;8.55;;
70929;SDS011;58588;48.102;19.682;2024-02-28T16:49:40;17.87;;;9.17;;
70929;SDS011;58588;48.102;19.682;2024-02-28T16:52:44;16.48;;;8.13;;
70929;SDS011;58588;48.102;19.682;2024-02-28T16:55:45;16.20;;;7.65;;
70929;SDS011;58588;48.102;19.682;2024-02-28T16:58:47;14.77;;;6.47;;
70929;SDS011;58588;48.102;19.682;2024-02-28T17:01:49;18.15;;;9.07;;
70929;SDS011;58588;48.102;19.682;2024-02-28T17:04:51;15.93;;;8.37;;
70929;SDS011;58588;48.102;19.682;2024-02-28T17:07:54;21.50;;;7.63;;
70929;SDS011;58588;48.102;19.682;2024-02-28T17:10:56;16.83;;;8.18;;
70929;SDS011;58588;48.102;19.682;2024-02-28T17:13:58;15.95;;;7.40;;
70929;SDS011;58588;48.102;19.682;2024-02-28T17:17:00;13.40;;;6.10;;
70929;SDS011;58588;48.102;19.682;2024-02-28T17:20:02;15.90;;;6.97;;
70929;SDS011;58588;48.102;19.682;2024-02-28T17:23:08;17.98;;;9.52;;
70929;SDS011;58588;48.102;19.682;2024-02-28T17:26:10;26.05;;;14.82;;
70929;SDS011;58588;48.102;19.682;2024-02-28T17:29:12;28.23;;;13.55;;
70929;SDS011;58588;48.102;19.682;2024-02-28T17:32:14;22.80;;;12.35;;
70929;SDS011;58588;48.102;19.682;2024-02-28T17:35:16;24.23;;;13.57;;
70929;SDS011;58588;48.102;19.682;2024-02-28T17:38:21;22.42;;;12.27;;
70929;SDS011;58588;48.102;19.682;2024-02-28T17:41:23;28.60;;;14.23;;
70929;SDS011;58588;48.102;19.682;2024-02-28T17:44:25;54.55;;;25.58;;